Time;durP1;ratioP1;P1;durP2;ratioP2;P2;SDS_P1;SDS_P2;PMS_P1;PMS_P2;Temp;Humidity;BMP_temperature;BMP_pressure;BME280_temperature;BME280_humidity;BME280_pressure;Samples;Min_cycle;Max_cycle;Signal;HPM_P1;HPM_P2
2022/04/11 00:01:17;;;;;;;5.68;4.90;;;8.40;53.30;;;;;;5049112;28;20102;-53
2022/04/11 00:03:44;;;;;;;6.22;5.60;;;8.40;53.30;;;;;;5045978;28;20045;-54
2022/04/11 00:06:14;;;;;;;5.53;4.85;;;8.40;53.30;;;;;;5053057;28;20040;-54
2022/04/11 00:08:40;;;;;;;6.75;4.85;;;8.40;53.30;;;;;;5058676;28;20068;-50
2022/04/11 00:11:07;;;;;;;5.28;4.78;;;8.40;53.40;;;;;;5051950;28;20037;-50
2022/04/11 00:13:34;;;;;;;6.35;5.20;;;8.40;53.40;;;;;;5045491;28;20048;-54
2022/04/11 00:16:01;;;;;;;6.55;5.05;;;8.40;53.50;;;;;;5058839;28;20106;-51
2022/04/11 00:18:29;;;;;;;7.80;5.47;;;8.40;53.50;;;;;;5056165;28;20040;-54
2022/04/11 00:20:56;;;;;;;8.57;5.70;;;8.30;53.50;;;;;;5072403;28;20389;-54
2022/04/11 00:23:27;;;;;;;7.07;5.20;;;8.30;53.50;;;;;;5055632;28;20045;-51
2022/04/11 00:25:54;;;;;;;6.63;4.75;;;8.30;53.90;;;;;;5062068;28;20102;-51
2022/04/11 00:28:23;;;;;;;5.82;5.30;;;8.30;53.60;;;;;;5063988;28;20040;-54
2022/04/11 00:30:49;;;;;;;7.35;5.70;;;8.30;53.80;;;;;;5071758;28;20091;-50
2022/04/11 00:33:16;;;;;;;7.53;5.90;;;8.30;53.80;;;;;;5030544;28;20053;-54
2022/04/11 00:35:43;;;;;;;6.68;5.32;;;8.20;53.80;;;;;;5049728;28;20060;-50
2022/04/11 00:38:10;;;;;;;6.97;5.65;;;8.20;53.90;;;;;;5068716;28;20068;-54
2022/04/11 00:40:37;;;;;;;7.30;6.50;;;8.20;54.10;;;;;;5054594;28;20411;-54
2022/04/11 00:43:04;;;;;;;6.70;6.03;;;8.20;54.20;;;;;;5052540;28;20488;-53
2022/04/11 00:45:31;;;;;;;6.15;5.55;;;8.20;54.20;;;;;;5056873;28;20040;-54
2022/04/11 00:47:59;;;;;;;6.40;5.40;;;8.20;54.30;;;;;;5068196;28;20115;-54
2022/04/11 00:50:28;;;;;;;6.07;5.47;;;8.20;54.50;;;;;;5049154;28;20037;-54
2022/04/11 00:52:59;;;;;;;8.32;5.43;;;8.20;54.60;;;;;;5059412;28;20041;-53
2022/04/11 00:55:28;;;;;;;7.88;5.80;;;8.20;54.70;;;;;;5070887;28;20049;-50
2022/04/11 00:57:56;;;;;;;7.03;6.20;;;8.20;54.80;;;;;;5064276;28;20156;-53
2022/04/11 01:00:26;;;;;;;6.90;6.03;;;8.20;54.90;;;;;;5054583;28;20105;-54
2022/04/11 01:02:53;;;;;;;6.95;6.35;;;8.20;55.00;;;;;;5031411;28;20048;-54
2022/04/11 01:05:20;;;;;;;7.20;5.85;;;8.20;55.10;;;;;;5060506;28;20059;-54
2022/04/11 01:07:51;;;;;;;8.23;7.40;;;8.20;55.80;;;;;;5053448;28;20052;-54
2022/04/11 01:10:18;;;;;;;8.38;6.72;;;8.30;55.30;;;;;;5048055;28;20464;-54
2022/04/11 01:12:50;;;;;;;7.68;6.90;;;8.30;55.40;;;;;;5036490;28;20139;-53
2022/04/11 01:15:21;;;;;;;7.57;6.47;;;8.30;55.50;;;;;;5041056;28;20056;-52
2022/04/11 01:17:55;;;;;;;8.23;7.43;;;8.30;55.50;;;;;;5044517;28;20124;-51
2022/04/11 01:20:22;;;;;;;8.02;7.22;;;8.30;55.60;;;;;;5028855;28;20565;-52
2022/04/11 01:22:51;;;;;;;9.52;6.78;;;8.30;55.60;;;;;;5036643;28;20044;-54
2022/04/11 01:25:23;;;;;;;8.00;7.20;;;8.30;55.60;;;;;;5057103;23;20052;-46
2022/04/11 01:27:54;;;;;;;7.68;6.30;;;8.40;55.80;;;;;;5069451;28;20052;-46
2022/04/11 01:30:22;;;;;;;8.82;7.47;;;8.30;55.70;;;;;;5070211;28;20037;-46
2022/04/11 01:32:51;;;;;;;7.43;6.72;;;8.40;55.80;;;;;;5049834;28;20048;-51
2022/04/11 01:35:21;;;;;;;8.30;7.45;;;8.30;55.80;;;;;;5051716;28;20052;-51
2022/04/11 01:37:48;;;;;;;8.35;6.32;;;8.40;55.90;;;;;;5042149;28;20559;-51
2022/04/11 01:40:16;;;;;;;8.38;6.35;;;8.40;55.80;;;;;;5051109;28;20048;-51
2022/04/11 01:42:43;;;;;;;7.70;7.00;;;8.40;55.90;;;;;;5044553;28;20040;-51
2022/04/11 01:45:16;;;;;;;8.25;7.40;;;8.40;56.00;;;;;;5052101;28;20048;-51
2022/04/11 01:47:44;;;;;;;10.40;7.18;;;8.40;56.00;;;;;;5050735;28;20037;-51
2022/04/11 01:50:12;;;;;;;10.88;7.38;;;8.40;55.90;;;;;;5068856;28;20400;-51
2022/04/11 01:52:43;;;;;;;8.13;7.30;;;8.40;56.00;;;;;;5061885;28;20044;-51
2022/04/11 01:55:13;;;;;;;8.93;7.03;;;8.40;56.00;;;;;;5052170;28;20048;-51
2022/04/11 01:57:46;;;;;;;7.00;6.40;;;8.40;56.00;;;;;;5043098;28;20052;-50
2022/04/11 02:00:18;;;;;;;7.38;6.72;;;8.30;56.00;;;;;;5050943;28;20059;-51
2022/04/11 02:02:47;;;;;;;8.45;7.32;;;8.30;56.30;;;;;;5044746;28;20055;-46
2022/04/11 02:05:14;;;;;;;9.23;6.50;;;8.30;56.10;;;;;;5051097;28;20052;-50
2022/04/11 02:07:41;;;;;;;7.28;6.60;;;8.30;56.10;;;;;;5047955;28;20037;-48
2022/04/11 02:10:09;;;;;;;7.55;6.85;;;8.30;56.20;;;;;;5034120;28;20041;-48
2022/04/11 02:12:38;;;;;;;8.02;7.03;;;8.30;56.20;;;;;;5036628;28;20522;-50
2022/04/11 02:15:06;;;;;;;7.65;6.95;;;8.30;56.20;;;;;;5055986;28;20049;-51
2022/04/11 02:17:48;;;;;;;7.55;6.63;;;8.30;56.30;;;;;;5042754;28;20045;-51
2022/04/11 02:20:15;;;;;;;7.25;6.57;;;8.20;56.20;;;;;;5043352;28;20103;-51
2022/04/11 02:22:53;;;;;;;7.75;6.70;;;8.20;56.10;;;;;;5050818;28;20075;-50
2022/04/11 02:25:26;;;;;;;6.43;5.80;;;8.20;56.90;;;;;;5065342;28;20059;-47
2022/04/11 02:27:59;;;;;;;8.07;6.15;;;8.20;56.40;;;;;;5043091;28;20047;-51
2022/04/11 02:30:30;;;;;;;10.20;6.93;;;8.20;56.40;;;;;;5050530;28;20047;-49
2022/04/11 02:33:07;;;;;;;8.15;6.70;;;8.20;56.40;;;;;;5066186;28;20041;-50
2022/04/11 02:35:41;;;;;;;7.22;6.20;;;8.20;56.40;;;;;;5033582;28;20098;-50
2022/04/11 02:38:11;;;;;;;6.70;5.75;;;8.10;56.40;;;;;;5043481;28;20648;-47
2022/04/11 02:40:40;;;;;;;7.30;6.07;;;8.10;56.40;;;;;;5051089;28;20048;-50
2022/04/11 02:43:17;;;;;;;6.60;5.57;;;8.10;56.40;;;;;;5048161;28;20052;-47
2022/04/11 02:46:06;;;;;;;6.97;5.85;;;8.00;56.40;;;;;;5037863;28;20040;-51
2022/04/11 02:48:39;;;;;;;6.82;6.22;;;8.00;56.70;;;;;;5044610;28;20045;-49
2022/04/11 02:51:10;;;;;;;6.65;5.63;;;8.00;56.60;;;;;;5050606;28;20415;-51
2022/04/11 02:53:43;;;;;;;7.25;6.40;;;8.00;56.50;;;;;;5041778;28;20547;-51
2022/04/11 02:56:10;;;;;;;9.32;6.13;;;7.90;56.50;;;;;;5049240;28;20523;-49
2022/04/11 02:58:37;;;;;;;6.85;6.22;;;7.90;56.60;;;;;;5049603;28;20467;-48
2022/04/11 03:01:06;;;;;;;6.40;5.75;;;7.90;56.60;;;;;;5029934;28;20075;-51
2022/04/11 03:03:36;;;;;;;6.22;5.53;;;7.80;56.60;;;;;;5037355;28;20090;-51
2022/04/11 03:06:05;;;;;;;7.72;5.28;;;7.80;56.60;;;;;;5049626;28;20098;-49
2022/04/11 03:08:33;;;;;;;6.30;5.70;;;7.80;56.90;;;;;;5040859;28;20036;-48
2022/04/11 03:11:02;;;;;;;5.95;5.30;;;7.70;56.60;;;;;;5044653;28;20128;-47
2022/04/11 03:13:31;;;;;;;6.68;5.88;;;7.70;56.60;;;;;;5028100;28;20118;-50
2022/04/11 03:16:09;;;;;;;7.57;5.07;;;7.70;56.60;;;;;;5038792;28;20047;-51
2022/04/11 03:18:38;;;;;;;7.97;5.50;;;7.60;56.70;;;;;;5054242;28;20500;-47
2022/04/11 03:21:07;;;;;;;6.40;5.68;;;7.60;56.50;;;;;;5058081;28;20044;-50
2022/04/11 03:23:40;;;;;;;6.18;4.78;;;7.50;56.40;;;;;;5046115;28;20047;-50
2022/04/11 03:26:09;;;;;;;6.55;5.20;;;7.50;56.50;;;;;;5049047;28;20072;-49
2022/04/11 03:28:37;;;;;;;5.97;5.35;;;7.50;56.50;;;;;;5042870;28;20040;-51
2022/04/11 03:31:04;;;;;;;6.35;5.38;;;7.40;56.40;;;;;;5044302;28;20091;-49
2022/04/11 03:33:34;;;;;;;7.45;5.60;;;7.40;56.40;;;;;;5041779;28;20047;-51
2022/04/11 03:36:02;;;;;;;6.05;5.45;;;7.40;56.50;;;;;;5042273;28;20052;-47
2022/04/11 03:38:35;;;;;;;9.43;5.78;;;7.30;56.50;;;;;;5030166;28;20513;-48
2022/04/11 03:41:04;;;;;;;6.05;5.50;;;7.20;56.40;;;;;;5058307;28;20044;-47
2022/04/11 03:43:34;;;;;;;6.32;5.72;;;7.20;56.50;;;;;;5048040;28;20564;-48
2022/04/11 03:46:01;;;;;;;7.07;6.28;;;7.20;56.60;;;;;;5017029;28;20045;-49
2022/04/11 03:48:35;;;;;;;6.13;5.50;;;7.10;56.60;;;;;;5035394;28;20048;-47
2022/04/11 03:51:07;;;;;;;6.93;6.13;;;7.00;56.70;;;;;;5049376;28;20050;-50
2022/04/11 03:53:35;;;;;;;8.63;5.85;;;7.00;56.50;;;;;;5042207;28;20044;-51
2022/04/11 03:56:02;;;;;;;10.88;5.90;;;7.00;56.60;;;;;;5061149;28;20036;-49
2022/04/11 03:58:29;;;;;;;7.00;5.63;;;6.90;56.60;;;;;;5046758;28;20127;-51
2022/04/11 04:01:04;;;;;;;6.05;5.38;;;6.90;56.70;;;;;;5031600;28;20127;-46
2022/04/11 04:03:31;;;;;;;8.05;5.95;;;6.90;56.60;;;;;;5048297;28;20035;-46
2022/04/11 04:06:06;;;;;;;7.68;5.78;;;6.80;56.70;;;;;;5043735;28;20089;-48
2022/04/11 04:08:37;;;;;;;6.40;5.30;;;6.70;56.60;;;;;;5039331;28;20045;-47
2022/04/11 04:11:17;;;;;;;6.45;5.85;;;6.70;56.60;;;;;;5037207;28;20071;-49
2022/04/11 04:13:53;;;;;;;8.00;5.80;;;6.70;56.70;;;;;;5055175;28;20124;-47
2022/04/11 04:16:22;;;;;;;6.25;5.65;;;6.60;56.70;;;;;;5042584;28;20051;-50
2022/04/11 04:18:55;;;;;;;7.38;5.47;;;6.60;56.70;;;;;;5046050;28;20539;-46
2022/04/11 04:21:24;;;;;;;6.38;5.78;;;6.50;56.70;;;;;;5041341;28;20056;-48
2022/04/11 04:23:52;;;;;;;6.00;5.40;;;6.50;56.80;;;;;;5050511;28;20419;-48
2022/04/11 04:26:22;;;;;;;6.95;6.22;;;6.50;56.80;;;;;;5045731;28;20099;-46
2022/04/11 04:28:50;;;;;;;6.80;5.85;;;6.40;56.80;;;;;;5046684;28;20036;-51
2022/04/11 04:31:19;;;;;;;7.90;5.50;;;6.40;56.90;;;;;;5041362;28;20045;-48
2022/04/11 04:33:46;;;;;;;5.78;4.70;;;6.40;57.00;;;;;;5043428;28;20049;-46
2022/04/11 04:36:13;;;;;;;6.10;5.13;;;6.30;57.00;;;;;;5044555;28;20069;-47
2022/04/11 04:38:41;;;;;;;6.15;5.07;;;6.30;57.10;;;;;;5049591;28;20496;-46
2022/04/11 04:41:10;;;;;;;10.40;5.90;;;6.30;57.20;;;;;;5043159;28;20466;-48
2022/04/11 04:43:40;;;;;;;6.40;5.40;;;6.20;57.30;;;;;;5049636;28;20048;-51
2022/04/11 04:46:07;;;;;;;7.28;5.63;;;6.20;57.10;;;;;;5048718;28;20060;-46
2022/04/11 04:48:48;;;;;;;7.20;5.25;;;6.20;57.20;;;;;;5041872;28;20036;-48
2022/04/11 04:51:19;;;;;;;5.15;4.65;;;6.10;57.10;;;;;;5033277;28;20411;-46
2022/04/11 04:53:53;;;;;;;5.95;4.75;;;6.10;57.30;;;;;;5049792;28;20051;-46
2022/04/11 04:56:20;;;;;;;5.70;5.18;;;6.10;57.20;;;;;;5043369;28;20041;-47
2022/04/11 04:58:48;;;;;;;5.57;5.00;;;6.00;57.20;;;;;;5047294;28;20584;-48
2022/04/11 05:01:15;;;;;;;6.30;4.97;;;6.00;57.30;;;;;;5061442;28;20055;-46
2022/04/11 05:03:43;;;;;;;6.38;4.75;;;6.00;57.40;;;;;;5035715;28;20041;-48
2022/04/11 05:06:13;;;;;;;7.65;4.80;;;6.00;57.50;;;;;;5047679;28;20055;-46
2022/04/11 05:08:41;;;;;;;6.72;4.82;;;6.00;57.50;;;;;;5044480;28;20037;-47
2022/04/11 05:11:08;;;;;;;5.05;4.60;;;5.90;57.60;;;;;;5040192;28;20200;-49
2022/04/11 05:13:36;;;;;;;5.38;4.70;;;6.00;57.70;;;;;;5034615;28;20037;-49
2022/04/11 05:16:02;;;;;;;6.68;5.45;;;5.90;57.80;;;;;;5051760;28;20885;-47
2022/04/11 05:18:30;;;;;;;6.47;5.18;;;5.90;57.80;;;;;;5052925;28;20554;-49
2022/04/11 05:20:57;;;;;;;4.97;4.55;;;5.90;57.90;;;;;;5052075;28;20044;-50
2022/04/11 05:23:27;;;;;;;6.82;4.88;;;5.90;57.90;;;;;;5047610;28;20455;-49
2022/04/11 05:25:56;;;;;;;5.63;5.07;;;5.90;58.00;;;;;;5037215;28;20037;-46
2022/04/11 05:28:25;;;;;;;5.80;5.10;;;5.90;58.10;;;;;;5060302;28;20040;-46
2022/04/11 05:31:00;;;;;;;6.03;4.95;;;5.90;58.20;;;;;;5038779;28;20060;-46
2022/04/11 05:33:28;;;;;;;6.18;5.57;;;5.90;58.20;;;;;;5044108;28;20041;-46
2022/04/11 05:35:58;;;;;;;5.70;5.20;;;5.90;58.30;;;;;;5059875;28;20049;-46
2022/04/11 05:38:26;;;;;;;6.63;5.60;;;5.90;58.30;;;;;;5045316;28;20048;-49
2022/04/11 05:40:56;;;;;;;7.70;6.30;;;5.90;58.40;;;;;;5040314;28;20037;-46
2022/04/11 05:43:33;;;;;;;6.88;6.20;;;6.00;58.50;;;;;;5048798;28;20093;-49
2022/04/11 05:46:01;;;;;;;7.40;5.25;;;6.00;58.60;;;;;;5035624;28;20045;-48
2022/04/11 05:48:34;;;;;;;7.38;6.28;;;6.00;58.70;;;;;;5050682;28;20044;-46
2022/04/11 05:51:01;;;;;;;7.13;5.82;;;6.10;58.90;;;;;;5046165;28;20041;-47
2022/04/11 05:53:28;;;;;;;6.55;5.95;;;6.10;58.90;;;;;;5068410;28;20048;-48
2022/04/11 05:55:55;;;;;;;8.05;6.40;;;6.20;59.00;;;;;;5042757;28;20843;-49
2022/04/11 05:58:23;;;;;;;7.70;6.22;;;6.20;59.10;;;;;;5043683;28;20579;-50
2022/04/11 06:00:56;;;;;;;6.72;6.03;;;6.20;59.20;;;;;;5044851;28;20580;-47
2022/04/11 06:03:22;;;;;;;8.63;7.07;;;6.30;59.30;;;;;;5035258;28;20045;-46
2022/04/11 06:05:49;;;;;;;9.27;7.32;;;6.30;59.30;;;;;;5030248;28;20098;-46
2022/04/11 06:08:19;;;;;;;10.10;8.23;;;6.30;59.40;;;;;;5040948;28;20044;-46
2022/04/11 06:10:46;;;;;;;15.85;11.68;;;6.40;59.50;;;;;;5040786;28;20047;-50
2022/04/11 06:13:18;;;;;;;14.45;11.52;;;6.40;59.60;;;;;;5044915;28;20478;-49
2022/04/11 06:15:47;;;;;;;15.40;11.13;;;6.50;59.60;;;;;;5036362;28;20443;-51
2022/04/11 06:18:14;;;;;;;13.77;10.38;;;6.50;59.60;;;;;;5051049;28;20056;-49
2022/04/11 06:20:43;;;;;;;17.00;9.82;;;6.60;59.70;;;;;;5044123;28;20048;-46
2022/04/11 06:23:11;;;;;;;12.60;8.18;;;6.60;59.80;;;;;;5064502;28;20048;-51
2022/04/11 06:25:38;;;;;;;15.52;9.23;;;6.70;59.90;;;;;;5029193;28;20508;-47
2022/04/11 06:28:06;;;;;;;11.45;9.50;;;6.70;60.00;;;;;;5042658;28;20040;-46
2022/04/11 06:30:33;;;;;;;9.80;7.88;;;6.80;60.20;;;;;;5042660;28;20055;-47
2022/04/11 06:33:02;;;;;;;9.00;7.70;;;6.90;60.20;;;;;;5035704;28;20073;-47
2022/04/11 06:35:30;;;;;;;8.48;6.32;;;6.90;60.30;;;;;;5039275;28;20048;-47
2022/04/11 06:37:57;;;;;;;11.50;6.63;;;7.00;60.40;;;;;;5028343;28;20041;-47
2022/04/11 06:40:23;;;;;;;9.80;6.75;;;7.10;60.50;;;;;;5049532;28;20040;-48
2022/04/11 06:42:53;;;;;;;7.68;6.22;;;7.20;60.60;;;;;;5037954;28;20496;-49
2022/04/11 06:45:58;;;;;;;9.60;6.07;;;7.30;60.70;;;;;;5043706;28;20117;-51
2022/04/11 06:48:26;;;;;;;9.25;5.88;;;7.40;60.60;;;;;;5034319;28;20051;-46
2022/04/11 06:50:55;;;;;;;7.70;6.10;;;7.40;60.60;;;;;;5032298;28;20131;-47
2022/04/11 06:53:25;;;;;;;14.82;7.60;;;7.60;60.60;;;;;;5062981;28;20530;-50
2022/04/11 06:55:53;;;;;;;9.52;6.30;;;7.60;60.80;;;;;;5057233;28;20052;-49
2022/04/11 06:58:26;;;;;;;9.63;6.68;;;7.70;60.90;;;;;;5061706;28;20068;-49
2022/04/11 07:00:53;;;;;;;9.15;5.85;;;7.80;60.80;;;;;;5061381;28;20044;-51
2022/04/11 07:03:19;;;;;;;9.90;6.50;;;7.90;60.80;;;;;;5049539;28;20045;-47
2022/04/11 07:05:46;;;;;;;7.75;5.65;;;8.00;60.80;;;;;;5055377;28;20047;-49
2022/04/11 07:08:13;;;;;;;8.40;5.68;;;8.10;60.70;;;;;;5059256;28;20049;-46
2022/04/11 07:10:40;;;;;;;12.73;5.78;;;8.20;60.70;;;;;;5047897;28;20041;-48
2022/04/11 07:13:07;;;;;;;10.27;5.38;;;8.30;60.60;;;;;;5054435;28;20127;-47
2022/04/11 07:15:34;;;;;;;7.50;5.25;;;8.40;60.40;;;;;;5052729;28;21027;-48
2022/04/11 07:18:04;;;;;;;8.05;5.07;;;8.50;60.10;;;;;;5065748;28;20116;-46
2022/04/11 07:20:31;;;;;;;8.63;5.97;;;8.60;59.90;;;;;;5059886;28;20072;-51
2022/04/11 07:22:59;;;;;;;7.88;5.63;;;8.70;59.90;;;;;;5059271;28;20102;-49
2022/04/11 07:25:28;;;;;;;10.45;5.32;;;8.80;59.70;;;;;;5051332;28;20051;-47
2022/04/11 07:27:56;;;;;;;7.18;4.90;;;8.90;59.70;;;;;;5067683;28;20040;-48
2022/04/11 07:30:23;;;;;;;5.30;4.60;;;9.00;59.50;;;;;;5042396;28;20112;-50
2022/04/11 07:32:50;;;;;;;9.68;5.13;;;9.10;59.20;;;;;;5066748;28;20040;-51
2022/04/11 07:35:19;;;;;;;11.35;6.13;;;9.20;59.20;;;;;;5061252;28;20048;-51
2022/04/11 07:37:45;;;;;;;8.95;4.60;;;9.30;59.10;;;;;;5046256;28;20053;-48
2022/04/11 07:40:12;;;;;;;7.90;5.13;;;9.30;58.90;;;;;;5066858;28;20040;-50
2022/04/11 07:42:42;;;;;;;6.78;4.43;;;9.40;58.80;;;;;;5066650;28;20036;-51
2022/04/11 07:45:09;;;;;;;7.47;4.82;;;9.50;58.70;;;;;;5064970;28;20047;-51
2022/04/11 07:47:36;;;;;;;7.18;5.00;;;9.60;58.60;;;;;;5062389;28;20488;-46
2022/04/11 07:50:06;;;;;;;6.35;4.50;;;9.70;58.50;;;;;;5060475;28;20048;-46
2022/04/11 07:52:35;;;;;;;8.52;4.90;;;9.70;58.30;;;;;;5067926;28;20036;-48
2022/04/11 07:55:02;;;;;;;7.43;4.55;;;9.80;58.20;;;;;;5064513;28;20068;-47
2022/04/11 07:57:34;;;;;;;7.18;4.85;;;9.80;57.90;;;;;;5060490;28;20045;-47
2022/04/11 08:00:26;;;;;;;9.43;5.10;;;10.00;57.80;;;;;;5047873;28;20048;-47
2022/04/11 08:03:00;;;;;;;6.00;3.95;;;10.10;57.60;;;;;;5058115;28;20044;-50
2022/04/11 08:05:27;;;;;;;9.95;4.75;;;10.10;57.30;;;;;;5056674;28;20037;-47
2022/04/11 08:07:53;;;;;;;7.45;5.05;;;10.20;57.10;;;;;;5063274;28;20044;-48
2022/04/11 08:10:22;;;;;;;7.53;4.53;;;10.30;57.10;;;;;;5057423;28;20049;-47
2022/04/11 08:12:59;;;;;;;10.83;4.17;;;10.40;57.00;;;;;;5056357;28;20036;-50
2022/04/11 08:15:29;;;;;;;7.93;3.88;;;10.40;57.00;;;;;;5051337;28;20666;-51
2022/04/11 08:17:56;;;;;;;7.95;4.63;;;10.50;56.80;;;;;;5056071;28;20109;-48
2022/04/11 08:20:26;;;;;;;8.65;4.38;;;10.60;56.60;;;;;;5058387;28;20044;-47
2022/04/11 08:22:53;;;;;;;4.60;3.50;;;10.70;56.60;;;;;;5059224;28;20553;-48
2022/04/11 08:25:21;;;;;;;6.07;4.18;;;10.80;56.60;;;;;;5056953;28;20493;-47
2022/04/11 08:27:50;;;;;;;5.63;3.90;;;10.80;56.50;;;;;;5058093;28;20047;-47
2022/04/11 08:30:17;;;;;;;7.10;4.10;;;10.90;56.00;;;;;;5059618;28;20049;-50
2022/04/11 08:32:48;;;;;;;8.80;4.60;;;11.00;56.00;;;;;;5062468;28;20067;-48
2022/04/11 08:35:18;;;;;;;5.57;4.25;;;11.10;56.10;;;;;;5062173;28;20114;-47
2022/04/11 08:37:45;;;;;;;5.60;4.50;;;11.20;55.70;;;;;;5052438;28;20394;-47
2022/04/11 08:40:18;;;;;;;5.40;4.18;;;11.30;55.50;;;;;;5057750;28;20049;-48
2022/04/11 08:42:46;;;;;;;5.90;4.65;;;11.40;55.20;;;;;;5062735;28;20451;-51
2022/04/11 08:45:15;;;;;;;7.10;4.88;;;11.50;55.20;;;;;;5063362;28;20060;-49
2022/04/11 08:47:42;;;;;;;5.63;4.43;;;11.50;54.90;;;;;;5067458;28;20041;-47
2022/04/11 08:50:11;;;;;;;6.15;4.28;;;11.60;54.90;;;;;;5060581;28;20033;-51
2022/04/11 08:52:38;;;;;;;10.25;4.40;;;11.70;54.90;;;;;;5063033;28;20033;-51
2022/04/11 08:55:05;;;;;;;7.30;4.93;;;11.80;54.90;;;;;;5066671;28;20048;-50
2022/04/11 08:57:34;;;;;;;7.00;4.25;;;11.80;54.80;;;;;;5069563;28;20044;-47
2022/04/11 09:00:07;;;;;;;8.77;4.38;;;11.90;54.80;;;;;;5060637;28;20041;-50
2022/04/11 09:02:34;;;;;;;4.85;3.83;;;12.00;54.70;;;;;;5063971;28;20508;-48
2022/04/11 09:05:02;;;;;;;5.25;3.70;;;12.10;54.20;;;;;;5056493;28;20037;-49
2022/04/11 09:07:50;;;;;;;9.05;5.03;;;12.20;54.00;;;;;;5057678;28;20068;-50
2022/04/11 09:10:21;;;;;;;5.93;4.13;;;12.30;54.00;;;;;;5062918;28;20449;-48
2022/04/11 09:12:53;;;;;;;6.28;3.92;;;12.30;54.00;;;;;;5057448;28;20040;-51
2022/04/11 09:15:21;;;;;;;6.45;3.65;;;12.40;53.60;;;;;;5054265;28;20080;-49
2022/04/11 09:17:48;;;;;;;5.43;3.70;;;12.50;53.60;;;;;;5063898;28;20049;-51
2022/04/11 09:20:24;;;;;;;6.63;3.65;;;12.60;53.30;;;;;;5060878;28;20045;-47
2022/04/11 09:22:51;;;;;;;4.78;3.08;;;12.70;52.80;;;;;;5061835;28;20075;-51
2022/04/11 09:25:23;;;;;;;8.15;3.83;;;12.70;52.60;;;;;;5059626;28;20074;-49
2022/04/11 09:28:08;;;;;;;;;;;12.80;52.50;;;;;;5041000;28;20443;-48
2022/04/11 09:30:37;;;;;;;5.45;2.83;;;12.90;52.80;;;;;;5060709;28;19924;-51
2022/04/11 09:33:09;;;;;;;4.67;3.30;;;13.00;52.10;;;;;;5063718;28;20037;-47
2022/04/11 09:35:43;;;;;;;7.00;2.78;;;13.10;51.80;;;;;;5060758;28;20054;-50
2022/04/11 09:38:16;;;;;;;5.68;2.90;;;13.10;51.40;;;;;;5065839;28;20098;-48
2022/04/11 09:40:44;;;;;;;4.05;2.85;;;13.20;51.10;;;;;;5059611;28;20045;-51
2022/04/11 09:43:12;;;;;;;4.88;2.88;;;13.30;51.10;;;;;;5063632;28;20072;-52
2022/04/11 09:45:47;;;;;;;4.90;3.08;;;13.30;51.00;;;;;;5066975;28;20040;-51
2022/04/11 09:48:25;;;;;;;5.22;2.95;;;13.40;50.80;;;;;;5048674;28;20048;-49
2022/04/11 09:50:54;;;;;;;2.72;2.30;;;13.40;50.60;;;;;;5050963;28;20044;-51
2022/04/11 09:53:23;;;;;;;3.47;2.65;;;13.50;50.70;;;;;;5051292;28;20044;-51
2022/04/11 09:55:52;;;;;;;5.70;3.00;;;13.60;50.00;;;;;;5054064;28;20411;-52
2022/04/11 09:58:20;;;;;;;4.15;2.10;;;13.60;49.80;;;;;;5061919;28;20501;-52
2022/04/11 10:00:51;;;;;;;5.13;2.40;;;13.70;49.80;;;;;;5040068;28;20072;-52
2022/04/11 10:03:22;;;;;;;2.92;2.65;;;13.70;49.40;;;;;;5053242;28;20045;-52
2022/04/11 10:05:49;;;;;;;5.45;2.45;;;13.80;48.50;;;;;;5043269;28;20044;-48
2022/04/11 10:08:18;;;;;;;3.42;1.98;;;13.80;48.80;;;;;;5067748;28;20041;-49
2022/04/11 10:10:45;;;;;;;3.47;2.63;;;13.90;48.80;;;;;;5049172;28;20045;-48
2022/04/11 10:13:16;;;;;;;3.53;2.70;;;13.90;49.00;;;;;;5066338;28;20041;-51
2022/04/11 10:15:49;;;;;;;3.28;2.58;;;14.00;48.40;;;;;;5049251;28;20048;-50
2022/04/11 10:18:25;;;;;;;3.30;2.67;;;14.10;47.90;;;;;;5049111;28;20041;-55
2022/04/11 10:21:02;;;;;;;4.45;2.85;;;14.10;46.40;;;;;;5057165;28;20056;-55
2022/04/11 10:23:55;;;;;;;3.13;2.28;;;14.20;47.50;;;;;;5061108;28;20076;-55
2022/04/11 10:26:26;;;;;;;5.10;3.13;;;14.30;47.70;;;;;;5064132;28;20059;-55
2022/04/11 10:28:53;;;;;;;4.25;2.78;;;14.40;47.50;;;;;;5053070;28;20033;-55
2022/04/11 10:31:34;;;;;;;5.38;3.33;;;14.40;47.30;;;;;;5051859;28;20045;-55
2022/04/11 10:34:01;;;;;;;3.60;3.05;;;14.50;47.50;;;;;;5068102;28;20041;-55
2022/04/11 10:36:56;;;;;;;4.00;3.33;;;14.60;47.40;;;;;;5060678;28;20047;-55
2022/04/11 10:39:24;;;;;;;6.50;3.47;;;14.70;46.70;;;;;;5065929;28;20483;-55
2022/04/11 10:41:56;;;;;;;5.13;3.30;;;14.80;46.90;;;;;;5062974;28;20079;-54
2022/04/11 10:44:31;;;;;;;5.13;4.00;;;14.90;46.70;;;;;;5067752;28;20036;-52
2022/04/11 10:47:10;;;;;;;6.68;4.63;;;14.90;47.30;;;;;;5054361;28;20500;-53
2022/04/11 10:49:55;;;;;;;7.07;4.68;;;15.00;46.50;;;;;;5038551;28;20036;-53
2022/04/11 10:52:35;;;;;;;8.30;4.18;;;15.10;46.40;;;;;;5058717;28;20102;-52
2022/04/11 10:55:12;;;;;;;5.65;4.22;;;15.20;46.40;;;;;;5066584;28;20048;-54
2022/04/11 10:57:45;;;;;;;6.45;3.70;;;15.30;46.30;;;;;;5055380;28;20039;-50
2022/04/11 11:00:13;;;;;;;8.27;3.88;;;15.30;46.30;;;;;;5056988;28;20463;-55
2022/04/11 11:05:31;;;;;;;5.18;3.40;;;15.40;45.20;;;;;;5060156;28;20416;-54
2022/04/11 11:08:10;;;;;;;4.88;3.22;;;15.50;44.90;;;;;;5057790;28;20037;-51
2022/04/11 11:10:53;;;;;;;6.03;3.00;;;15.60;45.70;;;;;;5052413;28;20144;-55
2022/04/11 11:13:34;;;;;;;3.03;2.70;;;15.70;45.40;;;;;;5054373;28;20452;-51
2022/04/11 11:16:07;;;;;;;7.13;3.15;;;15.80;46.00;;;;;;5034294;28;20037;-53
2022/04/11 11:18:50;;;;;;;3.17;2.40;;;15.90;45.70;;;;;;5056877;28;20120;-49
2022/04/11 11:21:33;;;;;;;3.47;2.95;;;15.90;45.10;;;;;;5059407;28;20060;-47
2022/04/11 11:24:03;;;;;;;6.90;2.83;;;16.00;45.60;;;;;;5049087;28;20048;-47
2022/04/11 11:26:48;;;;;;;5.95;2.90;;;16.10;45.20;;;;;;5047925;28;20102;-49
2022/04/11 11:29:33;;;;;;;6.30;2.75;;;16.20;44.90;;;;;;5056097;28;20344;-46
2022/04/11 11:32:05;;;;;;;3.40;2.63;;;16.30;44.80;;;;;;5057152;28;20551;-45
2022/04/11 11:34:38;;;;;;;;;;;16.40;44.50;;;;;;5059913;28;20068;-47
2022/04/11 11:37:08;;;;;;;4.25;2.75;;;16.50;45.10;;;;;;5053492;28;19943;-47
2022/04/11 11:39:39;;;;;;;2.70;2.25;;;16.60;44.10;;;;;;5057664;28;20049;-44
2022/04/11 11:42:11;;;;;;;4.53;2.70;;;16.60;43.70;;;;;;5059255;28;20060;-49
2022/04/11 11:44:50;;;;;;;5.07;2.78;;;16.70;43.40;;;;;;5057138;28;20554;-45
2022/04/11 11:47:26;;;;;;;5.63;2.95;;;16.70;43.20;;;;;;5056300;28;20033;-48
2022/04/11 11:50:04;;;;;;;5.10;2.88;;;16.80;43.10;;;;;;5057960;28;20800;-46
2022/04/11 11:52:31;;;;;;;4.60;3.47;;;16.80;42.70;;;;;;5037354;28;20048;-44
2022/04/11 11:54:59;;;;;;;6.13;2.97;;;16.90;42.80;;;;;;5018593;28;20119;-46
2022/04/11 11:57:30;;;;;;;3.20;2.65;;;17.00;43.40;;;;;;5051679;28;20670;-45
2022/04/11 12:00:03;;;;;;;3.75;2.63;;;17.10;43.10;;;;;;5040055;28;20074;-45
2022/04/11 12:05:31;;;;;;;4.95;2.67;;;17.20;42.40;;;;;;5057722;28;20037;-46
2022/04/11 12:08:17;;;;;;;4.72;2.63;;;17.30;41.20;;;;;;5048506;28;20102;-46
2022/04/11 12:10:46;;;;;;;4.65;3.10;;;17.40;41.20;;;;;;5057771;28;20064;-47
2022/04/11 12:13:24;;;;;;;5.10;2.90;;;17.50;42.00;;;;;;5045743;28;20063;-49
2022/04/11 12:15:51;;;;;;;4.03;2.45;;;17.50;40.80;;;;;;5058886;28;20134;-49
2022/04/11 12:18:19;;;;;;;6.13;3.17;;;17.60;40.50;;;;;;5052132;28;20294;-46
2022/04/11 12:20:47;;;;;;;5.22;2.70;;;17.70;40.20;;;;;;5053483;28;20048;-45
2022/04/11 12:23:16;;;;;;;5.63;2.58;;;17.70;40.30;;;;;;5043126;28;20403;-48
2022/04/11 12:25:49;;;;;;;3.80;2.97;;;17.80;40.10;;;;;;5061920;28;20040;-45
2022/04/11 12:28:20;;;;;;;3.85;2.75;;;17.90;39.20;;;;;;5052811;28;20045;-45
2022/04/11 12:31:12;;;;;;;5.43;2.90;;;18.00;40.20;;;;;;5065965;28;20040;-45
2022/04/11 12:33:43;;;;;;;3.53;2.83;;;18.00;39.70;;;;;;5068991;28;20083;-45
2022/04/11 12:36:20;;;;;;;5.30;2.83;;;18.10;39.90;;;;;;5064885;28;20041;-49
2022/04/11 12:38:48;;;;;;;5.68;3.28;;;18.20;38.90;;;;;;5060423;28;20091;-46
2022/04/11 12:41:39;;;;;;;4.45;2.67;;;18.30;39.30;;;;;;5052026;28;20084;-46
2022/04/11 12:44:07;;;;;;;4.38;2.60;;;18.50;39.00;;;;;;5063387;28;20045;-49
2022/04/11 12:46:48;;;;;;;5.82;3.13;;;18.50;39.30;;;;;;5066246;28;20396;-47
2022/04/11 12:49:21;;;;;;;3.58;2.78;;;18.70;38.50;;;;;;5070320;28;20412;-49
2022/04/11 12:52:01;;;;;;;6.00;2.80;;;18.80;38.70;;;;;;5071192;28;20043;-46
2022/04/11 12:54:43;;;;;;;6.35;3.25;;;18.90;38.60;;;;;;5067701;28;20036;-44
2022/04/11 12:57:12;;;;;;;2.83;2.25;;;18.90;38.20;;;;;;5059167;28;20694;-48
2022/04/11 12:59:45;;;;;;;6.57;2.45;;;19.00;38.30;;;;;;5052815;28;20045;-45
2022/04/11 13:02:18;;;;;;;4.60;2.83;;;19.10;38.80;;;;;;5053455;28;20068;-50
2022/04/11 13:04:54;;;;;;;4.97;2.42;;;19.20;38.00;;;;;;5067816;28;20071;-49
2022/04/11 13:07:41;;;;;;;6.32;2.63;;;19.30;38.30;;;;;;5062628;28;20127;-44
2022/04/11 13:10:09;;;;;;;5.78;2.95;;;19.40;38.20;;;;;;5071687;28;20548;-50
2022/04/11 13:12:36;;;;;;;3.45;2.45;;;19.50;38.30;;;;;;5063636;28;20033;-46
2022/04/11 13:15:07;;;;;;;4.32;2.75;;;19.60;38.00;;;;;;5064593;28;20037;-47
2022/04/11 13:20:36;;;;;;;5.25;3.08;;;19.80;37.40;;;;;;5067245;28;20051;-46